sensor_id;sensor_type;location;lat;lon;timestamp;pressure;altitude;pressure_sealevel;temperature;humidity
78573;BME280;67862;0.000;0.000;2023-06-22T00:00:27;99409.78;;;24.68;61.32
78573;BME280;67862;0.000;0.000;2023-06-22T00:02:52;99391.88;;;24.84;62.07
78573;BME280;67862;0.000;0.000;2023-06-22T00:05:18;99388.84;;;24.72;60.83
78573;BME280;67862;0.000;0.000;2023-06-22T00:07:43;99383.97;;;24.69;61.29
78573;BME280;67862;0.000;0.000;2023-06-22T00:10:08;99375.94;;;24.72;61.20
78573;BME280;67862;0.000;0.000;2023-06-22T00:12:34;99343.03;;;24.45;60.90
78573;BME280;67862;0.000;0.000;2023-06-22T00:14:59;99315.19;;;24.24;61.27
78573;BME280;67862;0.000;0.000;2023-06-22T00:17:24;99320.44;;;24.20;61.68
78573;BME280;67862;0.000;0.000;2023-06-22T00:19:50;99345.47;;;24.05;62.13
78573;BME280;67862;0.000;0.000;2023-06-22T00:22:19;99354.59;;;24.28;62.05
78573;BME280;67862;0.000;0.000;2023-06-22T00:24:46;99375.50;;;24.10;62.40
78573;BME280;67862;0.000;0.000;2023-06-22T00:27:12;99393.00;;;24.14;62.73
78573;BME280;67862;0.000;0.000;2023-06-22T00:29:37;99397.91;;;24.59;62.96
78573;BME280;67862;0.000;0.000;2023-06-22T00:32:03;99397.91;;;24.31;62.52
78573;BME280;67862;0.000;0.000;2023-06-22T00:34:28;99394.63;;;24.15;63.60
78573;BME280;67862;0.000;0.000;2023-06-22T00:36:54;99395.41;;;24.02;63.93
78573;BME280;67862;0.000;0.000;2023-06-22T00:39:19;99398.25;;;23.97;64.23
78573;BME280;67862;0.000;0.000;2023-06-22T00:41:44;99392.78;;;23.97;64.37
78573;BME280;67862;0.000;0.000;2023-06-22T00:44:10;99393.78;;;24.01;64.26
78573;BME280;67862;0.000;0.000;2023-06-22T00:46:35;99390.13;;;23.92;64.76
78573;BME280;67862;0.000;0.000;2023-06-22T00:49:00;99388.41;;;23.96;64.42
78573;BME280;67862;0.000;0.000;2023-06-22T00:51:26;99387.28;;;23.97;64.07
78573;BME280;67862;0.000;0.000;2023-06-22T00:53:51;99389.22;;;23.96;64.07
78573;BME280;67862;0.000;0.000;2023-06-22T00:56:18;99378.69;;;24.04;63.92
78573;BME280;67862;0.000;0.000;2023-06-22T00:58:45;99391.97;;;23.96;63.96
78573;BME280;67862;0.000;0.000;2023-06-22T01:04:19;99383.13;;;23.99;63.81
78573;BME280;67862;0.000;0.000;2023-06-22T01:06:54;99374.19;;;23.94;63.86
78573;BME280;67862;0.000;0.000;2023-06-22T01:09:26;99366.03;;;23.89;63.95
78573;BME280;67862;0.000;0.000;2023-06-22T01:11:57;99367.97;;;23.88;64.05
78573;BME280;67862;0.000;0.000;2023-06-22T01:14:27;99372.66;;;23.88;64.03
78573;BME280;67862;0.000;0.000;2023-06-22T01:16:53;99366.56;;;23.91;64.43
78573;BME280;67862;0.000;0.000;2023-06-22T01:22:06;99366.97;;;23.98;64.54
78573;BME280;67862;0.000;0.000;2023-06-22T01:24:41;99360.75;;;23.92;64.01
78573;BME280;67862;0.000;0.000;2023-06-22T01:29:55;99371.84;;;24.01;64.03
78573;BME280;67862;0.000;0.000;2023-06-22T01:32:34;99369.59;;;23.76;64.78
78573;BME280;67862;0.000;0.000;2023-06-22T01:35:01;99382.81;;;23.87;64.14
78573;BME280;67862;0.000;0.000;2023-06-22T01:37:30;99396.38;;;23.79;64.99
78573;BME280;67862;0.000;0.000;2023-06-22T01:39:57;99387.97;;;23.75;64.94
78573;BME280;67862;0.000;0.000;2023-06-22T01:42:26;99383.88;;;23.73;65.15
78573;BME280;67862;0.000;0.000;2023-06-22T01:44:52;99385.59;;;23.68;65.52
78573;BME280;67862;0.000;0.000;2023-06-22T01:47:18;99386.41;;;23.69;65.68
78573;BME280;67862;0.000;0.000;2023-06-22T01:49:44;99372.34;;;23.76;65.08
78573;BME280;67862;0.000;0.000;2023-06-22T01:52:10;99387.16;;;23.75;65.45
78573;BME280;67862;0.000;0.000;2023-06-22T01:54:37;99370.16;;;23.73;65.34
78573;BME280;67862;0.000;0.000;2023-06-22T01:57:03;99367.16;;;23.74;65.34
78573;BME280;67862;0.000;0.000;2023-06-22T01:59:30;99359.44;;;23.76;64.87
78573;BME280;67862;0.000;0.000;2023-06-22T02:01:59;99373.22;;;23.71;65.25
78573;BME280;67862;0.000;0.000;2023-06-22T02:04:29;99365.81;;;23.72;65.42
78573;BME280;67862;0.000;0.000;2023-06-22T02:06:58;99370.28;;;23.67;65.79
78573;BME280;67862;0.000;0.000;2023-06-22T02:09:25;99363.69;;;23.68;65.57
78573;BME280;67862;0.000;0.000;2023-06-22T02:11:54;99373.03;;;23.67;65.60
78573;BME280;67862;0.000;0.000;2023-06-22T02:14:21;99376.06;;;23.66;65.78
78573;BME280;67862;0.000;0.000;2023-06-22T02:16:47;99382.94;;;23.63;65.44
78573;BME280;67862;0.000;0.000;2023-06-22T02:19:13;99386.72;;;23.67;65.03
78573;BME280;67862;0.000;0.000;2023-06-22T02:21:44;99390.16;;;23.73;65.07
78573;BME280;67862;0.000;0.000;2023-06-22T02:24:10;99394.16;;;23.81;64.92
78573;BME280;67862;0.000;0.000;2023-06-22T02:26:35;99384.28;;;23.66;64.89
78573;BME280;67862;0.000;0.000;2023-06-22T02:29:03;99391.78;;;23.60;65.50
78573;BME280;67862;0.000;0.000;2023-06-22T02:31:29;99375.41;;;23.88;65.04
78573;BME280;67862;0.000;0.000;2023-06-22T02:33:55;99377.19;;;24.39;64.33
78573;BME280;67862;0.000;0.000;2023-06-22T02:36:21;99372.69;;;24.57;63.75
78573;BME280;67862;0.000;0.000;2023-06-22T02:38:47;99386.00;;;24.63;63.86
78573;BME280;67862;0.000;0.000;2023-06-22T02:41:15;99372.78;;;24.65;63.88
78573;BME280;67862;0.000;0.000;2023-06-22T02:43:44;99376.53;;;24.69;63.78
78573;BME280;67862;0.000;0.000;2023-06-22T02:49:06;99374.50;;;24.75;64.59
78573;BME280;67862;0.000;0.000;2023-06-22T02:51:33;99374.50;;;24.75;63.65
78573;BME280;67862;0.000;0.000;2023-06-22T02:53:59;99387.91;;;24.76;64.52
78573;BME280;67862;0.000;0.000;2023-06-22T02:56:24;99388.41;;;24.78;64.30
78573;BME280;67862;0.000;0.000;2023-06-22T02:58:50;99398.28;;;24.79;64.13
78573;BME280;67862;0.000;0.000;2023-06-22T03:01:15;99393.59;;;24.80;64.27
78573;BME280;67862;0.000;0.000;2023-06-22T03:03:40;99385.34;;;24.80;64.24
78573;BME280;67862;0.000;0.000;2023-06-22T03:06:06;99384.25;;;24.81;63.98
78573;BME280;67862;0.000;0.000;2023-06-22T03:08:31;99391.38;;;24.82;63.97
78573;BME280;67862;0.000;0.000;2023-06-22T03:10:56;99392.19;;;24.82;64.15
78573;BME280;67862;0.000;0.000;2023-06-22T03:13:22;99397.69;;;24.82;63.50
78573;BME280;67862;0.000;0.000;2023-06-22T03:15:48;99393.00;;;24.83;63.89
78573;BME280;67862;0.000;0.000;2023-06-22T03:18:13;99387.50;;;24.83;63.88
78573;BME280;67862;0.000;0.000;2023-06-22T03:20:38;99382.81;;;24.83;63.98
78573;BME280;67862;0.000;0.000;2023-06-22T03:23:04;99397.06;;;24.86;63.77
78573;BME280;67862;0.000;0.000;2023-06-22T03:25:30;99394.81;;;24.88;63.96
78573;BME280;67862;0.000;0.000;2023-06-22T03:27:55;99400.31;;;24.88;63.81
78573;BME280;67862;0.000;0.000;2023-06-22T03:30:21;99398.38;;;24.88;63.92
78573;BME280;67862;0.000;0.000;2023-06-22T03:32:46;99401.09;;;24.88;63.77
78573;BME280;67862;0.000;0.000;2023-06-22T03:35:12;99404.66;;;24.89;63.64
78573;BME280;67862;0.000;0.000;2023-06-22T03:37:39;99401.91;;;24.89;63.53
78573;BME280;67862;0.000;0.000;2023-06-22T03:40:04;99404.38;;;24.90;63.85
78573;BME280;67862;0.000;0.000;2023-06-22T03:42:30;99401.09;;;24.88;63.59
78573;BME280;67862;0.000;0.000;2023-06-22T03:44:55;99394.22;;;24.91;63.86
78573;BME280;67862;0.000;0.000;2023-06-22T03:47:21;99396.16;;;24.90;63.84
78573;BME280;67862;0.000;0.000;2023-06-22T03:49:47;99399.69;;;24.91;63.57
78573;BME280;67862;0.000;0.000;2023-06-22T03:52:12;99384.31;;;24.90;63.91
78573;BME280;67862;0.000;0.000;2023-06-22T03:54:41;99389.53;;;24.91;63.69
78573;BME280;67862;0.000;0.000;2023-06-22T03:57:06;99388.72;;;24.91;63.92
78573;BME280;67862;0.000;0.000;2023-06-22T03:59:31;99384.03;;;24.91;63.73
78573;BME280;67862;0.000;0.000;2023-06-22T04:01:57;99387.59;;;24.92;63.82
78573;BME280;67862;0.000;0.000;2023-06-22T04:04:22;99401.31;;;24.92;63.94
78573;BME280;67862;0.000;0.000;2023-06-22T04:06:48;99404.56;;;24.94;63.92
78573;BME280;67862;0.000;0.000;2023-06-22T04:09:13;99403.75;;;24.93;63.99
78573;BME280;67862;0.000;0.000;2023-06-22T04:11:41;99410.06;;;24.94;63.77
78573;BME280;67862;0.000;0.000;2023-06-22T04:14:33;99403.94;;;24.97;64.00
78573;BME280;67862;0.000;0.000;2023-06-22T04:16:58;99417.19;;;24.95;63.56
78573;BME280;67862;0.000;0.000;2023-06-22T04:19:24;99410.06;;;24.94;63.89
78573;BME280;67862;0.000;0.000;2023-06-22T04:21:49;99412.50;;;24.95;63.84
78573;BME280;67862;0.000;0.000;2023-06-22T04:24:15;99411.69;;;24.95;64.01
78573;BME280;67862;0.000;0.000;2023-06-22T04:26:40;99400.69;;;24.95;63.68
78573;BME280;67862;0.000;0.000;2023-06-22T04:29:07;99411.69;;;24.95;63.83
78573;BME280;67862;0.000;0.000;2023-06-22T04:31:34;99408.13;;;24.94;63.93
78573;BME280;67862;0.000;0.000;2023-06-22T04:34:02;99398.25;;;24.93;63.81
78573;BME280;67862;0.000;0.000;2023-06-22T04:36:40;99400.69;;;24.95;64.16
78573;BME280;67862;0.000;0.000;2023-06-22T04:39:06;99409.75;;;24.95;64.18
78573;BME280;67862;0.000;0.000;2023-06-22T04:41:32;99403.44;;;24.95;64.22
78573;BME280;67862;0.000;0.000;2023-06-22T04:44:14;99400.38;;;24.96;64.19
78573;BME280;67862;0.000;0.000;2023-06-22T04:46:49;99405.88;;;24.96;64.27
78573;BME280;67862;0.000;0.000;2023-06-22T04:49:19;99406.38;;;24.98;64.01
78573;BME280;67862;0.000;0.000;2023-06-22T04:51:45;99395.69;;;24.97;64.05
78573;BME280;67862;0.000;0.000;2023-06-22T04:54:11;99409.44;;;24.97;63.87
78573;BME280;67862;0.000;0.000;2023-06-22T04:56:36;99403.94;;;24.97;63.51
78573;BME280;67862;0.000;0.000;2023-06-22T04:59:02;99405.56;;;24.98;63.53
78573;BME280;67862;0.000;0.000;2023-06-22T05:01:31;99409.44;;;24.97;63.73
78573;BME280;67862;0.000;0.000;2023-06-22T05:03:56;99408.31;;;24.98;63.79
78573;BME280;67862;0.000;0.000;2023-06-22T05:06:23;99412.66;;;24.63;62.88
78573;BME280;67862;0.000;0.000;2023-06-22T05:08:52;99427.25;;;24.31;63.06
78573;BME280;67862;0.000;0.000;2023-06-22T05:11:18;99430.59;;;24.27;62.69
78573;BME280;67862;0.000;0.000;2023-06-22T05:13:43;99431.22;;;24.24;62.89
78573;BME280;67862;0.000;0.000;2023-06-22T05:16:08;99429.91;;;23.89;63.76
78573;BME280;67862;0.000;0.000;2023-06-22T05:18:34;99433.75;;;23.75;63.48
78573;BME280;67862;0.000;0.000;2023-06-22T05:21:00;99443.63;;;23.89;63.94
78573;BME280;67862;0.000;0.000;2023-06-22T05:23:25;99446.94;;;24.05;63.34
78573;BME280;67862;0.000;0.000;2023-06-22T05:25:51;99452.59;;;23.95;63.56
78573;BME280;67862;0.000;0.000;2023-06-22T05:28:16;99451.38;;;23.68;64.14
78573;BME280;67862;0.000;0.000;2023-06-22T05:30:41;99452.31;;;24.10;64.00
78573;BME280;67862;0.000;0.000;2023-06-22T05:33:07;99462.03;;;23.70;63.81
78573;BME280;67862;0.000;0.000;2023-06-22T05:35:32;99455.44;;;23.71;65.16
78573;BME280;67862;0.000;0.000;2023-06-22T05:37:58;99453.53;;;24.04;63.51
78573;BME280;67862;0.000;0.000;2023-06-22T05:40:24;99465.56;;;23.89;64.18
78573;BME280;67862;0.000;0.000;2023-06-22T05:42:50;99465.31;;;24.05;64.66
78573;BME280;67862;0.000;0.000;2023-06-22T05:45:15;99463.47;;;24.46;63.46
78573;BME280;67862;0.000;0.000;2023-06-22T05:47:41;99457.88;;;24.65;62.57
78573;BME280;67862;0.000;0.000;2023-06-22T05:50:06;99469.88;;;24.69;62.70
78573;BME280;67862;0.000;0.000;2023-06-22T05:52:33;99468.75;;;24.70;62.74
78573;BME280;67862;0.000;0.000;2023-06-22T05:54:59;99473.97;;;24.72;62.46
78573;BME280;67862;0.000;0.000;2023-06-22T05:57:24;99476.41;;;24.73;62.59
78573;BME280;67862;0.000;0.000;2023-06-22T05:59:49;99486.25;;;24.74;62.88
78573;BME280;67862;0.000;0.000;2023-06-22T06:02:15;99491.94;;;24.78;62.75
78573;BME280;67862;0.000;0.000;2023-06-22T06:04:40;99491.13;;;24.77;62.56
78573;BME280;67862;0.000;0.000;2023-06-22T06:07:06;99487.25;;;24.78;62.43
78573;BME280;67862;0.000;0.000;2023-06-22T06:09:32;99490.81;;;24.79;62.58
78573;BME280;67862;0.000;0.000;2023-06-22T06:11:57;99492.16;;;24.81;62.75
78573;BME280;67862;0.000;0.000;2023-06-22T06:14:23;99491.03;;;24.82;62.76
78573;BME280;67862;0.000;0.000;2023-06-22T06:16:48;99502.03;;;24.82;62.60
78573;BME280;67862;0.000;0.000;2023-06-22T06:19:14;99496.53;;;24.82;62.58
78573;BME280;67862;0.000;0.000;2023-06-22T06:21:39;99501.72;;;24.84;62.40
78573;BME280;67862;0.000;0.000;2023-06-22T06:24:05;99502.53;;;24.84;62.47
78573;BME280;67862;0.000;0.000;2023-06-22T06:26:30;99501.41;;;24.86;62.78
78573;BME280;67862;0.000;0.000;2023-06-22T06:28:59;99503.84;;;24.87;62.63
78573;BME280;67862;0.000;0.000;2023-06-22T06:31:25;99498.34;;;24.87;62.47
78573;BME280;67862;0.000;0.000;2023-06-22T06:33:54;99504.34;;;24.89;62.36
78573;BME280;67862;0.000;0.000;2023-06-22T06:36:20;99496.91;;;24.90;62.45
78573;BME280;67862;0.000;0.000;2023-06-22T06:38:45;99495.81;;;24.91;62.22
78573;BME280;67862;0.000;0.000;2023-06-22T06:41:15;99491.94;;;24.92;62.53
78573;BME280;67862;0.000;0.000;2023-06-22T06:43:41;99496.31;;;24.93;62.43
78573;BME280;67862;0.000;0.000;2023-06-22T06:46:09;99495.19;;;24.94;62.54
78573;BME280;67862;0.000;0.000;2023-06-22T06:48:35;99497.94;;;24.94;62.38
78573;BME280;67862;0.000;0.000;2023-06-22T06:51:00;99490.53;;;24.94;62.55
78573;BME280;67862;0.000;0.000;2023-06-22T06:53:25;99493.44;;;24.98;62.07
78573;BME280;67862;0.000;0.000;2023-06-22T06:55:51;99484.41;;;24.97;62.18
78573;BME280;67862;0.000;0.000;2023-06-22T06:58:17;99484.09;;;24.99;62.59
78573;BME280;67862;0.000;0.000;2023-06-22T07:00:43;99484.09;;;24.99;62.28
78573;BME280;67862;0.000;0.000;2023-06-22T07:03:09;99487.66;;;24.99;62.40
78573;BME280;67862;0.000;0.000;2023-06-22T07:05:34;99487.38;;;25.01;62.42
78573;BME280;67862;0.000;0.000;2023-06-22T07:08:00;99489.03;;;25.02;62.42
78573;BME280;67862;0.000;0.000;2023-06-22T07:10:26;99478.03;;;25.02;62.66
78573;BME280;67862;0.000;0.000;2023-06-22T07:12:51;99484.34;;;25.02;62.49
78573;BME280;67862;0.000;0.000;2023-06-22T07:15:17;99474.97;;;25.03;62.46
78573;BME280;67862;0.000;0.000;2023-06-22T07:17:43;99475.78;;;25.04;62.69
78573;BME280;67862;0.000;0.000;2023-06-22T07:20:09;99475.78;;;25.04;62.66
78573;BME280;67862;0.000;0.000;2023-06-22T07:22:37;99470.28;;;25.04;62.70
78573;BME280;67862;0.000;0.000;2023-06-22T07:25:02;99470.28;;;25.04;62.66
78573;BME280;67862;0.000;0.000;2023-06-22T07:27:37;99465.63;;;25.04;62.47
78573;BME280;67862;0.000;0.000;2023-06-22T07:30:03;99467.63;;;24.99;63.16
78573;BME280;67862;0.000;0.000;2023-06-22T07:32:29;99470.78;;;25.06;62.79
78573;BME280;67862;0.000;0.000;2023-06-22T07:34:54;99468.03;;;25.06;62.81
78573;BME280;67862;0.000;0.000;2023-06-22T07:37:19;99460.63;;;25.06;62.81
78573;BME280;67862;0.000;0.000;2023-06-22T07:39:44;99460.63;;;25.06;62.84
78573;BME280;67862;0.000;0.000;2023-06-22T07:42:10;99470.78;;;25.06;62.73
78573;BME280;67862;0.000;0.000;2023-06-22T07:44:35;99471.28;;;25.08;62.98
78573;BME280;67862;0.000;0.000;2023-06-22T07:47:01;99471.81;;;25.10;63.09
78573;BME280;67862;0.000;0.000;2023-06-22T07:49:27;99471.28;;;25.08;63.00
78573;BME280;67862;0.000;0.000;2023-06-22T07:51:52;99474.03;;;25.08;63.10
78573;BME280;67862;0.000;0.000;2023-06-22T07:54:18;99472.41;;;25.07;62.90
78573;BME280;67862;0.000;0.000;2023-06-22T07:56:43;99470.78;;;25.06;62.96
78573;BME280;67862;0.000;0.000;2023-06-22T07:59:09;99469.97;;;25.05;63.11
78573;BME280;67862;0.000;0.000;2023-06-22T08:01:34;99472.72;;;25.05;63.10
78573;BME280;67862;0.000;0.000;2023-06-22T08:03:59;99470.78;;;25.06;63.06
78573;BME280;67862;0.000;0.000;2023-06-22T08:06:25;99472.41;;;25.07;63.10
78573;BME280;67862;0.000;0.000;2023-06-22T08:08:50;99471.28;;;25.08;63.14
78573;BME280;67862;0.000;0.000;2023-06-22T08:11:17;99466.09;;;25.06;62.92
78573;BME280;67862;0.000;0.000;2023-06-22T08:13:43;99459.00;;;25.05;63.10
78573;BME280;67862;0.000;0.000;2023-06-22T08:16:08;99459.81;;;25.06;62.99
78573;BME280;67862;0.000;0.000;2023-06-22T08:18:33;99457.88;;;25.06;63.20
78573;BME280;67862;0.000;0.000;2023-06-22T08:20:59;99459.81;;;25.06;63.06
78573;BME280;67862;0.000;0.000;2023-06-22T08:23:24;99454.63;;;25.04;63.26
78573;BME280;67862;0.000;0.000;2023-06-22T08:25:50;99442.81;;;25.04;63.20
78573;BME280;67862;0.000;0.000;2023-06-22T08:28:15;99460.94;;;25.05;63.04
78573;BME280;67862;0.000;0.000;2023-06-22T08:30:41;99458.19;;;25.05;63.34
78573;BME280;67862;0.000;0.000;2023-06-22T08:33:06;99451.88;;;25.04;63.08
78573;BME280;67862;0.000;0.000;2023-06-22T08:35:32;99460.13;;;25.04;63.00
78573;BME280;67862;0.000;0.000;2023-06-22T08:37:57;99449.94;;;25.05;62.79
78573;BME280;67862;0.000;0.000;2023-06-22T08:40:23;99446.38;;;25.04;62.98
78573;BME280;67862;0.000;0.000;2023-06-22T08:42:49;99450.75;;;25.05;63.02
78573;BME280;67862;0.000;0.000;2023-06-22T08:45:15;99444.44;;;25.05;63.02
78573;BME280;67862;0.000;0.000;2023-06-22T08:47:41;99439.75;;;25.05;62.99
78573;BME280;67862;0.000;0.000;2023-06-22T08:50:07;99437.84;;;25.06;63.04
78573;BME280;67862;0.000;0.000;2023-06-22T08:52:33;99441.38;;;25.06;62.95
78573;BME280;67862;0.000;0.000;2023-06-22T08:54:58;99442.19;;;25.07;62.84
78573;BME280;67862;0.000;0.000;2023-06-22T08:57:24;99433.16;;;25.06;62.75
78573;BME280;67862;0.000;0.000;2023-06-22T08:59:49;99435.91;;;25.06;62.93
78573;BME280;67862;0.000;0.000;2023-06-22T09:02:17;99435.09;;;25.06;62.61
78573;BME280;67862;0.000;0.000;2023-06-22T09:04:42;99431.22;;;25.07;62.75
78573;BME280;67862;0.000;0.000;2023-06-22T09:07:08;99425.72;;;25.07;62.56
78573;BME280;67862;0.000;0.000;2023-06-22T09:09:33;99436.72;;;25.07;62.95
78573;BME280;67862;0.000;0.000;2023-06-22T09:11:59;99435.91;;;25.06;62.89
78573;BME280;67862;0.000;0.000;2023-06-22T09:14:24;99436.72;;;25.07;62.55
78573;BME280;67862;0.000;0.000;2023-06-22T09:16:49;99432.34;;;25.06;62.47
78573;BME280;67862;0.000;0.000;2023-06-22T09:19:15;99427.66;;;25.06;62.47
78573;BME280;67862;0.000;0.000;2023-06-22T09:21:40;99424.91;;;25.06;62.41
78573;BME280;67862;0.000;0.000;2023-06-22T09:24:05;99426.03;;;25.05;62.53
78573;BME280;67862;0.000;0.000;2023-06-22T09:26:31;99426.84;;;25.06;62.33
78573;BME280;67862;0.000;0.000;2023-06-22T09:28:57;99422.16;;;25.06;62.31
78573;BME280;67862;0.000;0.000;2023-06-22T09:31:23;99421.34;;;25.06;62.45
78573;BME280;67862;0.000;0.000;2023-06-22T09:33:53;99418.59;;;25.06;62.32
78573;BME280;67862;0.000;0.000;2023-06-22T09:36:21;99420.22;;;25.07;62.56
78573;BME280;67862;0.000;0.000;2023-06-22T09:38:47;99410.03;;;25.07;62.56
78573;BME280;67862;0.000;0.000;2023-06-22T09:41:12;99414.72;;;25.07;62.17
78573;BME280;67862;0.000;0.000;2023-06-22T09:43:38;99421.84;;;25.08;62.46
78573;BME280;67862;0.000;0.000;2023-06-22T09:46:03;99416.34;;;25.08;62.19
78573;BME280;67862;0.000;0.000;2023-06-22T09:48:29;99416.34;;;25.08;62.24
78573;BME280;67862;0.000;0.000;2023-06-22T09:50:55;99410.84;;;25.08;62.25
78573;BME280;67862;0.000;0.000;2023-06-22T09:53:20;99414.41;;;25.08;62.02
78573;BME280;67862;0.000;0.000;2023-06-22T09:55:46;99416.34;;;25.08;62.39
78573;BME280;67862;0.000;0.000;2023-06-22T09:58:11;99417.97;;;25.09;62.06
78573;BME280;67862;0.000;0.000;2023-06-22T10:00:36;99417.97;;;25.09;62.16
78573;BME280;67862;0.000;0.000;2023-06-22T10:03:02;99421.56;;;25.09;62.37
78573;BME280;67862;0.000;0.000;2023-06-22T10:05:27;99413.31;;;25.09;62.43
78573;BME280;67862;0.000;0.000;2023-06-22T10:07:52;99419.63;;;25.10;62.15
78573;BME280;67862;0.000;0.000;2023-06-22T10:10:18;99416.06;;;25.09;62.05
78573;BME280;67862;0.000;0.000;2023-06-22T10:12:45;99408.31;;;25.11;62.27
78573;BME280;67862;0.000;0.000;2023-06-22T10:15:11;99410.25;;;25.11;61.99
78573;BME280;67862;0.000;0.000;2023-06-22T10:17:36;99411.88;;;25.12;62.37
78573;BME280;67862;0.000;0.000;2023-06-22T10:20:02;99415.75;;;25.11;62.14
78573;BME280;67862;0.000;0.000;2023-06-22T10:22:35;99419.00;;;25.13;62.33
78573;BME280;67862;0.000;0.000;2023-06-22T10:25:01;99414.63;;;25.12;62.19
78573;BME280;67862;0.000;0.000;2023-06-22T10:27:26;99414.63;;;25.12;62.23
78573;BME280;67862;0.000;0.000;2023-06-22T10:29:51;99415.44;;;25.13;62.04
78573;BME280;67862;0.000;0.000;2023-06-22T10:32:17;99416.25;;;25.13;62.37
78573;BME280;67862;0.000;0.000;2023-06-22T10:34:42;99412.69;;;25.13;62.29
78573;BME280;67862;0.000;0.000;2023-06-22T10:37:08;99409.00;;;25.17;61.85
78573;BME280;67862;0.000;0.000;2023-06-22T10:39:33;99412.28;;;25.19;61.98
78573;BME280;67862;0.000;0.000;2023-06-22T10:41:59;99405.66;;;25.20;62.04
78573;BME280;67862;0.000;0.000;2023-06-22T10:44:24;99410.84;;;25.22;62.03
78573;BME280;67862;0.000;0.000;2023-06-22T10:46:50;99404.53;;;25.21;61.65
78573;BME280;67862;0.000;0.000;2023-06-22T10:49:15;99410.84;;;25.22;62.00
78573;BME280;67862;0.000;0.000;2023-06-22T10:51:40;99400.66;;;25.22;61.58
78573;BME280;67862;0.000;0.000;2023-06-22T10:54:06;99404.22;;;25.23;61.70
78573;BME280;67862;0.000;0.000;2023-06-22T10:56:32;99400.34;;;25.24;61.53
78573;BME280;67862;0.000;0.000;2023-06-22T10:58:58;99400.03;;;25.25;61.46
78573;BME280;67862;0.000;0.000;2023-06-22T11:01:24;99397.59;;;25.24;61.45
78573;BME280;67862;0.000;0.000;2023-06-22T11:03:49;99391.78;;;25.25;61.77
78573;BME280;67862;0.000;0.000;2023-06-22T11:06:14;99389.84;;;25.26;61.59
78573;BME280;67862;0.000;0.000;2023-06-22T11:08:42;99389.84;;;25.26;61.35
78573;BME280;67862;0.000;0.000;2023-06-22T11:11:08;99383.53;;;25.25;61.43
78573;BME280;67862;0.000;0.000;2023-06-22T11:13:34;99390.66;;;25.26;61.40
78573;BME280;67862;0.000;0.000;2023-06-22T11:15:59;99387.91;;;25.26;61.48
78573;BME280;67862;0.000;0.000;2023-06-22T11:18:24;99392.28;;;25.27;61.74
78573;BME280;67862;0.000;0.000;2023-06-22T11:20:50;99388.41;;;25.28;61.68
78573;BME280;67862;0.000;0.000;2023-06-22T11:23:15;99382.91;;;25.28;61.76
78573;BME280;67862;0.000;0.000;2023-06-22T11:25:40;99390.06;;;25.29;61.38
78573;BME280;67862;0.000;0.000;2023-06-22T11:28:07;99381.81;;;25.29;61.74
78573;BME280;67862;0.000;0.000;2023-06-22T11:30:33;99380.69;;;25.30;61.89
78573;BME280;67862;0.000;0.000;2023-06-22T11:32:59;99384.25;;;25.31;61.66
78573;BME280;67862;0.000;0.000;2023-06-22T11:35:25;99380.69;;;25.30;61.93
78573;BME280;67862;0.000;0.000;2023-06-22T11:37:50;99383.13;;;25.32;61.61
78573;BME280;67862;0.000;0.000;2023-06-22T11:40:15;99382.00;;;25.33;61.77
78573;BME280;67862;0.000;0.000;2023-06-22T11:42:42;99380.06;;;25.33;61.59
78573;BME280;67862;0.000;0.000;2023-06-22T11:45:08;99375.38;;;25.34;61.75
78573;BME280;67862;0.000;0.000;2023-06-22T11:47:33;99389.91;;;25.34;61.62
78573;BME280;67862;0.000;0.000;2023-06-22T11:49:58;99375.06;;;25.35;61.80
78573;BME280;67862;0.000;0.000;2023-06-22T11:52:24;99377.47;;;25.37;61.69
78573;BME280;67862;0.000;0.000;2023-06-22T11:54:49;99372.78;;;25.37;61.72
78573;BME280;67862;0.000;0.000;2023-06-22T11:57:14;99363.75;;;25.37;61.63
78573;BME280;67862;0.000;0.000;2023-06-22T11:59:40;99371.69;;;25.38;61.81
78573;BME280;67862;0.000;0.000;2023-06-22T12:02:05;99366.19;;;25.38;61.59
78573;BME280;67862;0.000;0.000;2023-06-22T12:04:32;99367.00;;;25.39;61.71
78573;BME280;67862;0.000;0.000;2023-06-22T12:06:58;99372.50;;;25.39;61.66
78573;BME280;67862;0.000;0.000;2023-06-22T12:09:23;99363.44;;;25.38;61.80
78573;BME280;67862;0.000;0.000;2023-06-22T12:11:48;99360.38;;;25.40;61.52
78573;BME280;67862;0.000;0.000;2023-06-22T12:14:14;99361.19;;;25.40;61.88
78573;BME280;67862;0.000;0.000;2023-06-22T12:16:39;99353.75;;;25.41;61.53
78573;BME280;67862;0.000;0.000;2023-06-22T12:19:05;99352.94;;;25.40;61.95
78573;BME280;67862;0.000;0.000;2023-06-22T12:21:30;99348.25;;;25.41;61.60
78573;BME280;67862;0.000;0.000;2023-06-22T12:23:55;99343.09;;;25.39;61.99
78573;BME280;67862;0.000;0.000;2023-06-22T12:26:21;99343.59;;;25.42;61.71
78573;BME280;67862;0.000;0.000;2023-06-22T12:28:47;99342.78;;;25.41;61.73
78573;BME280;67862;0.000;0.000;2023-06-22T12:31:12;99332.59;;;25.42;61.86
78573;BME280;67862;0.000;0.000;2023-06-22T12:33:37;99329.34;;;25.39;61.76
78573;BME280;67862;0.000;0.000;2023-06-22T12:36:03;99330.97;;;25.40;61.70
78573;BME280;67862;0.000;0.000;2023-06-22T12:38:30;99319.16;;;25.40;61.99
78573;BME280;67862;0.000;0.000;2023-06-22T12:40:55;99325.47;;;25.40;61.90
78573;BME280;67862;0.000;0.000;2023-06-22T12:43:20;99328.22;;;25.40;62.02
78573;BME280;67862;0.000;0.000;2023-06-22T12:45:45;99323.84;;;25.39;61.71
78573;BME280;67862;0.000;0.000;2023-06-22T12:48:11;99319.16;;;25.40;61.86
78573;BME280;67862;0.000;0.000;2023-06-22T12:50:37;99329.03;;;25.41;61.96
78573;BME280;67862;0.000;0.000;2023-06-22T12:53:03;99332.59;;;25.42;62.16
78573;BME280;67862;0.000;0.000;2023-06-22T12:55:29;99326.28;;;25.41;62.13
78573;BME280;67862;0.000;0.000;2023-06-22T12:57:55;99322.72;;;25.40;61.87
78573;BME280;67862;0.000;0.000;2023-06-22T13:00:20;99325.47;;;25.40;62.18
78573;BME280;67862;0.000;0.000;2023-06-22T13:02:46;99329.03;;;25.41;61.93
78573;BME280;67862;0.000;0.000;2023-06-22T13:05:11;99324.03;;;25.43;61.87
78573;BME280;67862;0.000;0.000;2023-06-22T13:07:37;99324.34;;;25.42;61.92
78573;BME280;67862;0.000;0.000;2023-06-22T13:10:02;99319.34;;;25.44;61.98
78573;BME280;67862;0.000;0.000;2023-06-22T13:12:28;99311.41;;;25.42;61.94
78573;BME280;67862;0.000;0.000;2023-06-22T13:14:53;99311.91;;;25.44;62.00